Time;durP1;ratioP1;P1;durP2;ratioP2;P2;SDS_P1;SDS_P2;PMS_P1;PMS_P2;Temp;Humidity;BMP_temperature;BMP_pressure;BME280_temperature;BME280_humidity;BME280_pressure;Samples;Min_cycle;Max_cycle;Signal;HPM_P1;HPM_P2
2022/01/07 06:18:26;;;;;;;17.08;7.65;;;;;;;-2.46;83.97;98344.63;5397364;23;19974;-51
2022/01/07 06:20:52;;;;;;;22.00;8.85;;;;;;;-2.32;83.92;98345.28;4955018;29;20043;-49
2022/01/07 06:23:17;;;;;;;19.33;7.65;;;;;;;-2.34;84.33;98341.91;4954941;29;20035;-47
2022/01/07 06:25:44;;;;;;;17.75;8.30;;;;;;;-2.33;84.35;98342.75;4954121;29;20031;-48
2022/01/07 06:28:10;;;;;;;18.63;8.18;;;;;;;-2.29;84.65;98342.66;4950742;29;20094;-53
2022/01/07 06:30:35;;;;;;;22.85;8.43;;;;;;;-2.34;84.42;98336.75;4924364;29;20537;-48
2022/01/07 06:33:00;;;;;;;21.48;8.27;;;;;;;-2.26;84.74;98327.19;4952574;28;20028;-50
2022/01/07 06:35:26;;;;;;;19.23;7.82;;;;;;;-2.11;84.49;98322.69;4951182;29;20024;-48
2022/01/07 06:37:51;;;;;;;19.23;7.55;;;;;;;-2.09;83.74;98315.81;4946879;29;20034;-45
2022/01/07 06:40:17;;;;;;;20.33;8.00;;;;;;;-1.96;84.00;98318.16;4936181;29;20039;-48
2022/01/07 06:42:42;;;;;;;21.52;8.93;;;;;;;-1.92;83.55;98313.81;4946534;29;20028;-47
2022/01/07 06:45:08;;;;;;;20.27;8.35;;;;;;;-1.92;84.15;98303.53;4955299;29;20023;-46
2022/01/07 06:47:33;;;;;;;23.05;9.15;;;;;;;-1.64;82.69;98309.03;4955278;28;20159;-46
2022/01/07 06:49:59;;;;;;;18.02;8.02;;;;;;;-1.52;81.95;98313.09;4955520;29;20496;-51
2022/01/07 06:52:24;;;;;;;22.27;9.05;;;;;;;-1.79;82.57;98323.03;4955044;29;20042;-49
2022/01/07 06:54:49;;;;;;;20.48;8.52;;;;;;;-1.86;83.24;98321.41;4949864;29;20050;-49
2022/01/07 06:57:15;;;;;;;23.35;8.85;;;;;;;-1.86;82.65;98334.25;4954984;29;20069;-47
2022/01/07 06:59:40;;;;;;;21.00;9.00;;;;;;;-1.55;82.78;98331.16;4955008;29;20027;-48
2022/01/07 07:02:06;;;;;;;18.23;8.32;;;;;;;-1.59;83.21;98321.81;4954059;29;20029;-47
2022/01/07 07:04:31;;;;;;;25.67;8.07;;;;;;;-1.60;82.16;98322.69;4954484;29;20567;-46
2022/01/07 07:06:59;;;;;;;22.60;9.50;;;;;;;-1.80;83.96;98335.88;4952476;29;20483;-46
2022/01/07 07:09:25;;;;;;;20.63;7.90;;;;;;;-1.66;83.21;98328.78;4949823;29;20031;-48
2022/01/07 07:11:50;;;;;;;22.95;8.27;;;;;;;-1.67;83.82;98325.38;4947961;29;20031;-48
2022/01/07 07:14:16;;;;;;;21.75;8.20;;;;;;;-1.58;83.86;98326.94;4941208;28;20039;-48
2022/01/07 07:16:43;;;;;;;22.23;9.20;;;;;;;-1.57;83.14;98331.19;4944133;29;20074;-50
2022/01/07 07:19:08;;;;;;;24.33;8.60;;;;;;;-1.51;83.60;98327.69;4951503;29;20514;-49
2022/01/07 07:21:34;;;;;;;25.77;10.32;;;;;;;-1.46;82.41;98321.56;4948813;29;20027;-48
2022/01/07 07:23:59;;;;;;;30.08;10.45;;;;;;;-1.26;81.98;98323.75;4940696;29;20035;-49
2022/01/07 07:26:25;;;;;;;49.95;14.90;;;;;;;-1.50;82.72;98337.09;4940403;28;20039;-53
2022/01/07 07:28:50;;;;;;;74.00;21.30;;;;;;;-1.69;83.47;98337.44;4954928;28;20033;-48
2022/01/07 07:31:17;;;;;;;21.13;9.18;;;;;;;-1.62;83.09;98334.72;4954368;29;20019;-48
2022/01/07 07:36:27;;;;;;;27.70;9.93;;;;;;;-1.47;82.78;98324.16;4949124;29;20035;-47
2022/01/07 07:38:57;;;;;;;55.22;16.02;;;;;;;-1.48;82.95;98320.75;4942709;29;20034;-48
2022/01/07 07:41:22;;;;;;;32.40;11.45;;;;;;;-1.43;82.35;98315.50;4918887;29;20023;-49
2022/01/07 07:43:49;;;;;;;26.85;9.68;;;;;;;-1.34;82.19;98317.91;4936252;29;20103;-48
2022/01/07 07:46:15;;;;;;;22.02;8.73;;;;;;;-1.30;81.46;98311.84;4935231;29;20046;-47
2022/01/07 07:48:40;;;;;;;18.73;7.80;;;;;;;-1.23;81.34;98305.69;4951396;29;20538;-53
2022/01/07 07:51:06;;;;;;;23.40;9.23;;;;;;;-1.36;82.46;98311.09;4952334;29;20035;-48
2022/01/07 07:53:31;;;;;;;25.45;10.07;;;;;;;-1.26;81.75;98310.88;4936395;29;20030;-53
2022/01/07 07:55:56;;;;;;;28.45;11.30;;;;;;;-1.30;81.90;98306.69;4940049;29;20037;-49
2022/01/07 07:58:23;;;;;;;24.95;10.40;;;;;;;-1.17;81.94;98301.28;4948233;28;20459;-48
2022/01/07 08:00:48;;;;;;;24.42;10.05;;;;;;;-1.07;81.45;98297.66;4937507;29;20562;-49
2022/01/07 08:03:14;;;;;;;20.45;8.10;;;;;;;-1.10;81.39;98297.69;4934555;29;20103;-48
2022/01/07 08:05:39;;;;;;;21.55;8.20;;;;;;;-1.05;81.53;98301.03;4941302;29;20098;-50
2022/01/07 08:08:05;;;;;;;32.00;11.20;;;;;;;-1.31;81.72;98292.13;4936968;29;20035;-51
2022/01/07 08:10:31;;;;;;;21.13;8.35;;;;;;;-1.30;82.04;98290.41;4952200;29;20034;-50
2022/01/07 08:18:15;;;;;;;28.38;9.20;;;;;;;-0.87;81.27;98280.06;4948395;29;20095;-48
2022/01/07 08:20:41;;;;;;;21.10;7.85;;;;;;;-0.77;80.01;98283.28;4937543;29;20031;-52
2022/01/07 08:23:06;;;;;;;39.35;14.63;;;;;;;-0.91;80.95;98291.31;4943103;29;20023;-52
2022/01/07 08:25:32;;;;;;;40.75;15.88;;;;;;;-0.96;81.46;98280.28;4934769;29;20480;-53
2022/01/07 08:28:02;;;;;;;26.10;10.02;;;;;;;-0.83;80.68;98278.25;4945791;29;20051;-50
2022/01/07 08:30:35;;;;;;;28.05;12.18;;;;;;;-0.86;81.10;98281.78;4947795;29;20478;-53
2022/01/07 08:35:44;;;;;;;35.40;12.98;;;;;;;-0.56;79.51;98276.81;4945590;29;20054;-51
2022/01/07 08:38:09;;;;;;;24.88;9.98;;;;;;;-0.57;80.15;98273.38;4930027;29;20035;-50
2022/01/07 08:40:35;;;;;;;25.83;7.93;;;;;;;-0.47;79.75;98275.75;4920773;29;20034;-49
2022/01/07 08:43:01;;;;;;;19.88;8.25;;;;;;;-0.68;79.77;98259.06;4949530;29;20019;-49
2022/01/07 08:45:26;;;;;;;22.30;8.98;;;;;;;-0.41;80.10;98260.13;4948887;29;20039;-50
2022/01/07 08:47:51;;;;;;;20.50;8.57;;;;;;;-0.43;80.19;98264.50;4948255;29;20380;-47
2022/01/07 08:50:17;;;;;;;23.23;8.57;;;;;;;-0.17;79.78;98266.44;4953088;29;20039;-47
2022/01/07 08:52:42;;;;;;;17.73;7.38;;;;;;;-0.32;79.95;98257.34;4938081;29;20051;-51
2022/01/07 08:55:08;;;;;;;24.42;9.43;;;;;;;-0.35;79.68;98266.00;4949896;29;20031;-50
2022/01/07 08:57:33;;;;;;;20.95;8.30;;;;;;;-0.16;78.93;98265.56;4935525;29;20535;-49
2022/01/07 08:59:58;;;;;;;18.98;8.77;;;;;;;-0.30;78.97;98260.75;4939467;29;20027;-52
2022/01/07 09:02:24;;;;;;;18.90;7.93;;;;;;;-0.19;79.23;98255.31;4936575;29;20028;-50
2022/01/07 09:04:49;;;;;;;17.85;7.63;;;;;;;-0.07;79.20;98253.28;4947303;29;20344;-48
2022/01/07 09:07:15;;;;;;;22.33;8.20;;;;;;;-0.19;79.49;98257.91;4941454;29;20032;-49
2022/01/07 09:09:40;;;;;;;21.48;8.95;;;;;;;-0.03;79.75;98256.66;4935738;29;20483;-45
2022/01/07 09:12:06;;;;;;;21.73;8.35;;;;;;;0.12;79.04;98253.66;4937704;29;20032;-48
2022/01/07 09:14:32;;;;;;;20.00;8.27;;;;;;;0.08;77.89;98257.22;4937623;29;20055;-50
2022/01/07 09:17:00;;;;;;;19.40;7.82;;;;;;;-0.28;78.82;98264.94;4942041;29;20388;-47
2022/01/07 09:19:26;;;;;;;21.13;9.02;;;;;;;-0.02;78.61;98246.28;4939864;29;20059;-49
2022/01/07 09:21:51;;;;;;;19.20;7.53;;;;;;;0.29;78.16;98254.97;4943668;29;20510;-50
2022/01/07 09:24:17;;;;;;;21.60;8.20;;;;;;;0.06;78.99;98243.50;4952061;29;20059;-46
2022/01/07 09:26:42;;;;;;;19.42;8.43;;;;;;;0.37;77.96;98247.84;4920771;29;20028;-50
2022/01/07 09:29:08;;;;;;;18.55;7.32;;;;;;;0.49;77.09;98257.84;4923416;29;20038;-47
2022/01/07 09:31:33;;;;;;;22.67;8.18;;;;;;;0.53;76.60;98254.28;4937567;29;20024;-47
2022/01/07 09:33:59;;;;;;;21.63;7.88;;;;;;;0.01;78.63;98242.78;4951450;29;20027;-48
2022/01/07 09:36:24;;;;;;;23.10;9.50;;;;;;;0.26;77.28;98255.88;4938233;29;20079;-46
2022/01/07 09:38:50;;;;;;;22.55;8.60;;;;;;;-0.08;78.33;98250.75;4942310;29;20027;-49
2022/01/07 09:41:15;;;;;;;20.48;7.63;;;;;;;0.08;79.70;98244.31;4937257;29;20047;-49
2022/01/07 09:43:44;;;;;;;21.20;8.60;;;;;;;0.16;78.08;98250.09;4938741;29;20402;-47
2022/01/07 09:46:12;;;;;;;22.50;8.30;;;;;;;0.13;78.47;98242.44;4948483;29;20039;-48
2022/01/07 09:48:38;;;;;;;24.20;8.48;;;;;;;0.08;77.71;98231.41;4955117;29;20027;-49
2022/01/07 09:51:03;;;;;;;21.67;8.40;;;;;;;0.25;78.47;98232.72;4936805;29;20070;-50
2022/01/07 09:53:28;;;;;;;22.98;8.38;;;;;;;0.17;78.42;98226.03;4945576;29;20042;-54
2022/01/07 09:55:54;;;;;;;19.55;7.82;;;;;;;0.22;78.63;98224.16;4936724;29;20027;-53
2022/01/07 09:58:19;;;;;;;23.38;8.25;;;;;;;0.00;78.35;98220.47;4937766;29;20035;-53
2022/01/07 10:00:45;;;;;;;21.48;8.38;;;;;;;0.40;77.31;98224.53;4937742;29;20050;-49
2022/01/07 10:03:15;;;;;;;19.80;7.85;;;;;;;0.56;76.88;98227.56;4948232;29;20030;-55
2022/01/07 10:05:45;;;;;;;21.17;8.45;;;;;;;0.34;77.26;98209.22;4936878;29;20036;-51
2022/01/07 10:08:28;;;;;;;21.90;8.30;;;;;;;0.46;76.82;98207.16;4947108;29;20487;-52
2022/01/07 10:11:09;;;;;;;;;;;;;;;0.50;76.81;98207.91;4943047;29;20039;-52
2022/01/07 10:13:34;;;;;;;21.50;7.53;;;;;;;0.57;76.33;98199.13;4937580;29;19922;-51
2022/01/07 10:16:11;;;;;;;20.67;7.47;;;;;;;0.69;76.03;98198.78;4938596;29;20032;-51
2022/01/07 10:18:39;;;;;;;22.05;7.88;;;;;;;0.65;76.21;98196.31;4936493;29;20039;-53
2022/01/07 10:21:08;;;;;;;20.58;8.13;;;;;;;0.90;75.39;98196.47;4926640;29;20036;-51
2022/01/07 10:23:34;;;;;;;23.30;7.88;;;;;;;0.86;75.24;98194.84;4954427;29;20039;-49
2022/01/07 10:25:59;;;;;;;18.80;7.97;;;;;;;0.59;77.02;98186.19;4953785;29;20075;-48
2022/01/07 10:28:29;;;;;;;23.38;8.02;;;;;;;0.73;75.07;98189.19;4954088;29;20028;-50
2022/01/07 10:30:54;;;;;;;20.73;7.82;;;;;;;0.93;75.18;98178.28;4942087;28;20075;-52
2022/01/07 10:33:21;;;;;;;21.17;7.57;;;;;;;1.17;74.22;98174.06;4967849;28;20106;-51
2022/01/07 10:35:57;;;;;;;21.10;7.43;;;;;;;1.34;74.19;98170.97;4938093;28;20488;-50
2022/01/07 10:38:26;;;;;;;19.02;8.27;;;;;;;1.31;74.23;98171.09;4955632;28;20028;-52
2022/01/07 10:40:53;;;;;;;20.92;8.27;;;;;;;1.16;74.77;98178.41;4947674;29;20026;-50
2022/01/07 10:43:25;;;;;;;19.35;8.05;;;;;;;1.32;73.64;98172.78;4942568;28;20030;-47
2022/01/07 10:45:50;;;;;;;16.83;7.78;;;;;;;1.12;73.95;98174.22;4941338;28;20468;-50
2022/01/07 10:48:16;;;;;;;20.58;8.52;;;;;;;1.13;73.50;98170.75;4957151;28;20082;-51
2022/01/07 10:50:46;;;;;;;19.33;8.05;;;;;;;1.21;74.21;98160.19;4948095;28;20035;-51
2022/01/07 10:53:14;;;;;;;17.15;6.88;;;;;;;1.19;73.70;98157.66;4964942;28;20031;-47
2022/01/07 10:55:40;;;;;;;20.10;8.15;;;;;;;1.34;73.05;98155.47;4943475;29;20098;-50
2022/01/07 10:58:05;;;;;;;19.75;7.75;;;;;;;1.08;74.83;98159.72;4943269;28;20074;-52
2022/01/07 11:00:30;;;;;;;21.05;7.60;;;;;;;1.26;73.37;98150.53;4952509;28;20387;-48
2022/01/07 11:02:57;;;;;;;19.27;8.30;;;;;;;1.42;73.58;98148.31;4920555;29;20036;-54
2022/01/07 11:05:22;;;;;;;19.80;7.97;;;;;;;1.92;72.21;98143.16;4913313;29;20039;-51
2022/01/07 11:07:48;;;;;;;18.63;8.07;;;;;;;1.40;72.28;98144.94;4936041;29;20047;-56
2022/01/07 11:10:13;;;;;;;19.02;7.28;;;;;;;1.45;72.41;98137.03;4944328;28;20023;-53
2022/01/07 11:12:38;;;;;;;22.73;8.52;;;;;;;1.78;72.27;98135.88;4953912;28;20033;-52
2022/01/07 11:15:06;;;;;;;21.95;9.07;;;;;;;1.24;73.60;98133.38;4927160;29;20035;-52
2022/01/07 11:17:31;;;;;;;19.40;8.07;;;;;;;1.83;72.43;98128.00;4943989;28;20050;-51
2022/01/07 11:20:00;;;;;;;19.85;7.80;;;;;;;1.69;71.54;98119.84;4948842;29;20491;-52
2022/01/07 11:22:26;;;;;;;20.00;7.93;;;;;;;1.84;72.03;98119.31;4959096;28;20018;-50
2022/01/07 11:25:05;;;;;;;18.20;7.45;;;;;;;1.80;70.48;98122.91;4954945;28;20043;-47
2022/01/07 11:27:30;;;;;;;22.75;9.43;;;;;;;1.75;71.11;98112.72;4945058;28;20034;-48
2022/01/07 11:30:11;;;;;;;20.98;8.52;;;;;;;1.60;71.15;98115.84;4929918;29;20023;-48
2022/01/07 11:32:40;;;;;;;17.40;7.25;;;;;;;1.17;72.61;98117.25;4947771;28;20031;-49
2022/01/07 11:35:18;;;;;;;17.92;8.00;;;;;;;1.37;71.69;98109.69;4945620;29;20063;-52
2022/01/07 11:37:44;;;;;;;22.90;8.63;;;;;;;1.07;72.62;98115.88;4939719;29;20028;-52
2022/01/07 11:40:10;;;;;;;18.75;8.60;;;;;;;1.26;72.66;98113.53;4934145;29;20517;-48
2022/01/07 11:42:39;;;;;;;16.60;6.75;;;;;;;0.80;73.34;98120.16;4918222;29;20117;-49
2022/01/07 11:45:29;;;;;;;17.80;6.97;;;;;;;0.67;74.19;98117.94;4932623;29;20027;-48
2022/01/07 11:47:56;;;;;;;20.92;9.20;;;;;;;0.67;74.47;98120.50;4935302;29;20031;-51
2022/01/07 11:50:24;;;;;;;20.20;8.40;;;;;;;1.12;73.45;98109.66;4942552;29;20089;-51
2022/01/07 11:53:02;;;;;;;17.98;8.40;;;;;;;1.00;73.43;98120.38;4952580;29;20063;-48
2022/01/07 11:55:32;;;;;;;17.70;8.63;;;;;;;0.87;74.08;98117.34;4946863;29;20440;-51
2022/01/07 11:57:57;;;;;;;23.48;8.57;;;;;;;1.03;73.29;98115.09;4936667;29;20380;-48
2022/01/07 12:00:46;;;;;;;17.08;7.95;;;;;;;1.03;73.14;98107.34;4940037;29;20466;-50
2022/01/07 12:03:12;;;;;;;18.67;8.57;;;;;;;1.07;73.44;98090.88;4949367;29;20027;-50
2022/01/07 12:05:37;;;;;;;24.27;8.77;;;;;;;0.95;73.65;98099.00;4939005;29;20452;-51
2022/01/07 12:08:02;;;;;;;21.17;10.18;;;;;;;0.92;74.17;98096.53;4935508;29;20032;-53
2022/01/07 12:10:28;;;;;;;17.48;8.27;;;;;;;1.02;74.69;98097.06;4947925;29;20439;-52
2022/01/07 12:13:00;;;;;;;20.70;8.65;;;;;;;0.93;73.83;98093.91;4953272;29;20023;-52
2022/01/07 12:15:25;;;;;;;;;;;;;;;1.12;73.19;98088.13;4927787;29;20051;-52
2022/01/07 12:17:51;;;;;;;17.45;7.53;;;;;;;1.12;73.39;98086.41;4946986;29;20330;-52
2022/01/07 12:20:48;;;;;;;20.77;9.43;;;;;;;1.05;72.85;98082.31;4948241;29;20023;-54
2022/01/07 12:23:21;;;;;;;23.50;9.57;;;;;;;0.89;73.91;98083.69;4947742;29;20122;-49
2022/01/07 12:25:50;;;;;;;20.85;8.77;;;;;;;0.83;74.19;98086.50;4946893;29;20520;-53
2022/01/07 12:28:15;;;;;;;19.20;8.65;;;;;;;1.00;73.61;98078.19;4940595;29;20027;-49
2022/01/07 12:30:41;;;;;;;19.20;8.48;;;;;;;0.95;73.77;98070.59;4938029;29;20078;-50
2022/01/07 12:33:07;;;;;;;17.23;8.43;;;;;;;1.07;73.91;98067.63;4932562;29;20032;-52
2022/01/07 12:35:32;;;;;;;20.23;8.88;;;;;;;0.89;74.38;98058.72;4935357;29;20055;-51
2022/01/07 12:37:58;;;;;;;24.30;10.02;;;;;;;0.70;75.21;98071.38;4944292;29;20057;-48
2022/01/07 12:40:23;;;;;;;24.35;9.65;;;;;;;0.84;75.36;98076.09;4934354;29;20036;-51
2022/01/07 12:42:49;;;;;;;20.00;9.35;;;;;;;0.90;75.86;98062.16;4943681;29;20023;-49
2022/01/07 12:45:17;;;;;;;21.52;9.60;;;;;;;0.95;76.65;98062.84;4940650;28;20027;-50
2022/01/07 12:47:42;;;;;;;18.65;8.75;;;;;;;0.68;78.23;98062.81;4921139;29;20108;-50
2022/01/07 12:50:08;;;;;;;20.17;8.52;;;;;;;0.67;78.82;98061.13;4953728;29;20035;-51
2022/01/07 12:52:37;;;;;;;21.25;8.88;;;;;;;0.42;80.24;98062.81;4954606;29;20535;-47
2022/01/07 12:55:16;;;;;;;21.10;10.10;;;;;;;0.36;81.04;98066.41;4948936;29;20031;-47
2022/01/07 12:57:48;;;;;;;23.25;11.18;;;;;;;0.34;81.65;98057.84;4941330;29;20066;-47
2022/01/07 13:00:23;;;;;;;21.40;10.15;;;;;;;0.13;83.60;98061.91;4937876;29;20036;-51
2022/01/07 13:03:05;;;;;;;22.45;9.40;;;;;;;0.47;82.21;98053.16;4937883;29;20031;-50
2022/01/07 13:05:40;;;;;;;17.25;8.80;;;;;;;0.23;83.53;98054.75;4926095;29;20102;-53
2022/01/07 13:08:13;;;;;;;20.90;9.43;;;;;;;0.15;83.60;98047.25;4912114;29;20035;-50
2022/01/07 13:10:40;;;;;;;18.90;8.73;;;;;;;0.44;83.18;98050.69;4941834;29;20451;-51
2022/01/07 13:13:09;;;;;;;22.25;9.68;;;;;;;0.30;84.30;98050.25;4951287;29;20526;-51
2022/01/07 13:15:46;;;;;;;21.13;9.65;;;;;;;0.36;84.21;98047.50;4947417;29;20054;-49
2022/01/07 13:18:18;;;;;;;21.05;8.95;;;;;;;0.53;84.13;98042.66;4952658;29;20378;-54
2022/01/07 13:20:43;;;;;;;19.42;9.63;;;;;;;0.35;83.46;98035.50;4952915;29;20070;-51
2022/01/07 13:23:09;;;;;;;22.67;9.65;;;;;;;0.50;84.71;98035.00;4940379;29;20384;-49
2022/01/07 13:25:34;;;;;;;19.42;9.00;;;;;;;0.70;83.39;98030.06;4936800;29;20039;-49
2022/01/07 13:28:00;;;;;;;19.58;9.70;;;;;;;0.66;83.69;98032.81;4947746;29;20031;-51
2022/01/07 13:30:39;;;;;;;22.38;9.30;;;;;;;0.61;84.10;98034.69;4924813;29;20039;-52
2022/01/07 13:33:08;;;;;;;21.40;9.55;;;;;;;0.53;84.30;98022.00;4922943;29;20024;-51
2022/01/07 13:35:35;;;;;;;19.38;9.52;;;;;;;0.51;84.45;98021.22;4944542;29;20027;-53
2022/01/07 13:38:01;;;;;;;20.90;9.18;;;;;;;0.69;83.82;98023.22;4920866;29;20050;-52
2022/01/07 13:40:35;;;;;;;22.63;8.75;;;;;;;0.57;83.55;98023.59;4955804;29;20395;-48
2022/01/07 13:43:10;;;;;;;21.35;8.85;;;;;;;0.69;83.32;98020.66;4948258;29;20433;-51
2022/01/07 13:45:36;;;;;;;20.40;8.82;;;;;;;0.95;82.89;98013.78;4945867;29;20048;-48
2022/01/07 13:48:06;;;;;;;19.70;8.23;;;;;;;0.69;83.53;98012.06;4950697;29;20030;-48
2022/01/07 13:50:31;;;;;;;18.92;8.73;;;;;;;0.74;83.16;98010.16;4930245;29;20452;-48
2022/01/07 13:52:57;;;;;;;17.58;7.88;;;;;;;0.89;83.02;97999.31;4952604;29;20060;-52
2022/01/07 13:55:33;;;;;;;19.25;8.75;;;;;;;0.70;83.04;98004.25;4921986;29;20525;-53
2022/01/07 13:58:15;;;;;;;20.77;8.65;;;;;;;0.90;82.58;98001.03;4953305;29;20051;-53
2022/01/07 14:00:41;;;;;;;18.88;8.65;;;;;;;0.76;82.68;97999.78;4937949;29;20032;-50
2022/01/07 14:03:07;;;;;;;23.58;9.27;;;;;;;0.56;83.28;98000.44;4939135;29;20039;-51
2022/01/07 14:05:34;;;;;;;21.90;9.70;;;;;;;0.54;82.86;97991.88;4948488;29;20035;-54
2022/01/07 14:07:59;;;;;;;21.38;9.73;;;;;;;0.49;83.29;97998.94;4926371;29;20055;-49
2022/01/07 14:10:32;;;;;;;23.20;8.98;;;;;;;0.35;82.96;98001.94;4940346;29;20037;-54
2022/01/07 14:13:04;;;;;;;18.92;9.23;;;;;;;0.65;82.88;97988.09;4944035;29;20103;-53
2022/01/07 14:15:37;;;;;;;18.52;8.15;;;;;;;0.47;83.07;97993.81;4919903;29;20079;-49
2022/01/07 14:18:13;;;;;;;16.63;7.80;;;;;;;0.64;82.41;97988.13;4946684;29;20086;-50
2022/01/07 14:20:38;;;;;;;20.10;8.95;;;;;;;0.53;83.84;97996.22;4953315;29;20545;-51
2022/01/07 14:23:04;;;;;;;19.35;8.73;;;;;;;0.67;82.53;97986.28;4951550;29;20064;-51
2022/01/07 14:25:29;;;;;;;19.05;7.97;;;;;;;0.68;81.90;97990.53;4938909;29;20086;-53
2022/01/07 14:27:54;;;;;;;20.27;9.20;;;;;;;0.63;82.65;97984.69;4940098;29;20030;-51
2022/01/07 14:30:20;;;;;;;18.45;8.45;;;;;;;0.60;82.29;97986.53;4943946;29;20042;-52
2022/01/07 14:32:45;;;;;;;17.40;8.13;;;;;;;0.79;82.13;97974.72;4937361;29;20071;-54
2022/01/07 14:35:11;;;;;;;20.10;8.52;;;;;;;0.72;81.85;97986.13;4943033;29;20240;-50
2022/01/07 14:37:37;;;;;;;17.13;7.97;;;;;;;0.74;82.31;97983.50;4954497;29;20066;-50
2022/01/07 14:40:03;;;;;;;17.73;8.23;;;;;;;0.71;82.66;97987.88;4949573;29;20027;-50
2022/01/07 14:42:28;;;;;;;17.08;8.05;;;;;;;0.70;81.97;97987.94;4921713;29;20019;-50
2022/01/07 14:44:54;;;;;;;17.60;7.93;;;;;;;0.58;83.44;97994.31;4949488;29;20054;-53
2022/01/07 14:47:19;;;;;;;21.13;8.40;;;;;;;0.45;83.04;97990.47;4943539;29;20027;-53
2022/01/07 14:49:45;;;;;;;44.88;14.57;;;;;;;0.49;83.10;97986.88;4951386;29;20047;-52
2022/01/07 14:52:10;;;;;;;26.25;11.13;;;;;;;0.52;82.80;97975.59;4940467;29;20023;-50
2022/01/07 14:54:36;;;;;;;23.95;9.82;;;;;;;0.46;83.06;97992.13;4936801;29;20036;-51
2022/01/07 14:57:02;;;;;;;20.42;9.02;;;;;;;0.56;82.90;97979.78;4943129;29;20030;-52
2022/01/07 14:59:27;;;;;;;20.17;8.70;;;;;;;0.45;83.31;97980.97;4940633;29;20035;-49
2022/01/07 15:01:53;;;;;;;68.72;20.25;;;;;;;0.53;82.43;97980.72;4941963;29;20032;-49
2022/01/07 15:04:18;;;;;;;39.33;13.20;;;;;;;0.79;82.27;97972.16;4947044;29;20506;-48
2022/01/07 15:06:45;;;;;;;22.33;8.35;;;;;;;0.50;82.36;97980.81;4946149;29;20395;-52
2022/01/07 15:09:11;;;;;;;28.02;11.35;;;;;;;0.53;82.67;97985.03;4927934;29;20023;-53
2022/01/07 15:11:36;;;;;;;17.50;8.13;;;;;;;0.43;83.18;97982.75;4951595;29;20546;-51
2022/01/07 15:14:01;;;;;;;19.13;8.52;;;;;;;0.48;82.37;97982.59;4937316;29;20035;-47
2022/01/07 15:16:40;;;;;;;19.20;7.68;;;;;;;0.29;83.14;97981.50;4941716;29;20150;-52
2022/01/07 15:19:06;;;;;;;16.75;8.20;;;;;;;0.28;83.37;97972.91;4925613;29;20034;-49
2022/01/07 15:21:36;;;;;;;19.67;8.93;;;;;;;0.24;83.47;97973.88;4953188;29;20031;-51
2022/01/07 15:24:03;;;;;;;19.80;8.98;;;;;;;0.22;83.61;97980.84;4939099;29;20038;-51
2022/01/07 15:26:29;;;;;;;18.48;9.07;;;;;;;0.09;83.75;97980.34;4935490;29;20031;-52
2022/01/07 15:28:54;;;;;;;18.27;8.80;;;;;;;0.25;84.32;97977.31;4919268;29;20032;-50
2022/01/07 15:31:20;;;;;;;20.23;8.77;;;;;;;0.21;83.67;97980.00;4941118;29;20152;-50
2022/01/07 15:33:45;;;;;;;18.30;9.15;;;;;;;0.35;82.52;97981.31;4944996;29;20031;-51
2022/01/07 15:36:11;;;;;;;18.70;8.07;;;;;;;0.46;82.49;97980.06;4938922;29;20039;-47
2022/01/07 15:38:36;;;;;;;16.98;7.85;;;;;;;0.33;82.75;97986.50;4953033;29;20027;-50
2022/01/07 15:41:03;;;;;;;20.55;8.85;;;;;;;0.22;84.09;97992.00;4952806;29;20034;-52
2022/01/07 15:43:29;;;;;;;21.63;9.10;;;;;;;0.22;84.09;97997.16;4939080;29;20031;-49
2022/01/07 15:45:54;;;;;;;22.33;9.82;;;;;;;0.27;83.42;97985.84;4941561;29;20513;-49
2022/01/07 15:48:20;;;;;;;21.10;8.68;;;;;;;0.48;83.68;97992.91;4949134;29;20039;-50
2022/01/07 15:50:45;;;;;;;19.08;9.02;;;;;;;0.24;84.46;97989.34;4935121;29;20036;-50
2022/01/07 15:53:10;;;;;;;22.02;8.38;;;;;;;0.39;84.04;97995.81;4949332;29;20423;-51
2022/01/07 15:55:36;;;;;;;17.73;8.50;;;;;;;0.24;83.81;97994.50;4948521;29;20031;-48
2022/01/07 15:58:02;;;;;;;20.33;8.90;;;;;;;0.32;83.91;97986.56;4935998;29;20495;-48
2022/01/07 16:00:27;;;;;;;20.65;9.02;;;;;;;0.44;83.73;97988.75;4942462;29;20050;-49
2022/01/07 16:02:53;;;;;;;20.95;9.57;;;;;;;0.50;83.72;97982.56;4940041;29;20043;-48
2022/01/07 16:05:18;;;;;;;20.58;9.07;;;;;;;0.47;83.10;97978.31;4940081;29;20036;-48
2022/01/07 16:07:44;;;;;;;22.40;8.80;;;;;;;0.52;82.92;97979.03;4949548;29;20372;-48
2022/01/07 16:10:09;;;;;;;23.08;9.70;;;;;;;0.19;83.65;97986.94;4944453;29;20023;-50
2022/01/07 16:12:35;;;;;;;21.63;9.75;;;;;;;0.33;83.80;97983.09;4936951;29;20082;-49
2022/01/07 16:15:00;;;;;;;23.73;9.43;;;;;;;0.30;83.98;97973.69;4948974;29;20023;-48
2022/01/07 16:17:26;;;;;;;90.22;23.70;;;;;;;0.62;83.36;97984.72;4939379;29;20091;-49
2022/01/07 16:19:52;;;;;;;29.65;12.05;;;;;;;0.62;83.53;97980.44;4945964;28;20027;-48
2022/01/07 16:22:17;;;;;;;51.17;17.70;;;;;;;0.54;83.62;97987.56;4936091;29;20531;-49
2022/01/07 16:24:42;;;;;;;64.47;21.40;;;;;;;0.47;83.96;97978.31;4952250;29;20039;-48
2022/01/07 16:27:08;;;;;;;25.27;10.30;;;;;;;0.35;84.97;97978.72;4944039;29;20032;-52
2022/01/07 16:29:33;;;;;;;21.67;9.13;;;;;;;0.56;84.14;97975.47;4937291;29;20034;-52
2022/01/07 16:31:59;;;;;;;24.58;11.35;;;;;;;0.43;84.70;97969.00;4954165;29;20024;-48
2022/01/07 16:34:25;;;;;;;27.70;12.07;;;;;;;0.46;84.64;97979.22;4945398;29;20034;-50
2022/01/07 16:36:50;;;;;;;24.95;11.55;;;;;;;0.46;84.58;97976.66;4945239;29;20032;-53
2022/01/07 16:39:16;;;;;;;22.20;11.18;;;;;;;0.51;84.26;97974.75;4944622;29;20503;-54
2022/01/07 16:41:41;;;;;;;23.15;10.00;;;;;;;0.61;84.66;97973.56;4945823;29;20040;-54
2022/01/07 16:44:07;;;;;;;23.83;9.45;;;;;;;0.67;83.88;97973.38;4935016;29;20050;-51
2022/01/07 16:46:32;;;;;;;19.40;10.15;;;;;;;0.67;82.81;97973.38;4937620;29;20484;-47
2022/01/07 16:48:58;;;;;;;23.10;9.88;;;;;;;0.41;84.55;97976.81;4948511;29;20027;-47
2022/01/07 16:51:23;;;;;;;21.95;10.20;;;;;;;0.44;84.80;97965.53;4942427;29;20083;-51
2022/01/07 16:53:48;;;;;;;22.33;9.75;;;;;;;0.59;84.29;97962.47;4934393;29;20049;-48
2022/01/07 16:56:14;;;;;;;23.23;11.05;;;;;;;0.59;84.71;97972.78;4943943;28;20023;-48
2022/01/07 16:58:39;;;;;;;23.42;12.32;;;;;;;0.48;84.72;97972.25;4944815;28;20032;-50
2022/01/07 17:01:05;;;;;;;25.38;11.27;;;;;;;0.76;83.83;97972.25;4955220;28;20448;-50
2022/01/07 17:03:31;;;;;;;23.83;10.15;;;;;;;0.50;83.67;97973.06;4946697;29;20031;-52
2022/01/07 17:05:56;;;;;;;24.75;10.55;;;;;;;0.45;84.20;97970.66;4951982;29;20042;-48
2022/01/07 17:08:21;;;;;;;23.85;10.10;;;;;;;0.37;84.22;97964.03;4954396;29;20395;-48
2022/01/07 17:10:47;;;;;;;22.65;10.23;;;;;;;0.40;84.94;97969.09;4954369;29;20038;-51
2022/01/07 17:13:12;;;;;;;22.83;11.35;;;;;;;0.37;84.36;97956.28;4942094;29;20026;-51
2022/01/07 17:15:37;;;;;;;24.50;10.93;;;;;;;0.25;83.99;97961.84;4936711;29;20046;-49
2022/01/07 17:18:06;;;;;;;23.10;10.93;;;;;;;0.46;83.74;97963.75;4943416;29;20095;-52
2022/01/07 17:20:31;;;;;;;20.35;9.13;;;;;;;0.66;83.79;97961.38;4946339;29;20024;-53
2022/01/07 17:22:57;;;;;;;23.67;10.05;;;;;;;0.68;83.92;97958.72;4951024;29;20031;-51
2022/01/07 17:25:22;;;;;;;22.02;10.15;;;;;;;0.78;83.57;97961.84;4953356;29;20027;-52
2022/01/07 17:27:48;;;;;;;21.58;10.82;;;;;;;0.63;83.27;97950.31;4940564;29;20028;-52
2022/01/07 17:30:13;;;;;;;22.67;9.73;;;;;;;0.77;83.03;97963.59;4935904;29;20057;-52
2022/01/07 17:32:39;;;;;;;20.85;10.43;;;;;;;0.68;82.42;97966.47;4942971;29;20023;-48
2022/01/07 17:35:05;;;;;;;22.42;10.43;;;;;;;0.69;83.07;97956.13;4949582;29;20364;-52
2022/01/07 17:37:30;;;;;;;23.00;10.65;;;;;;;0.77;82.57;97965.34;4938898;29;20031;-50
2022/01/07 17:40:01;;;;;;;19.27;9.77;;;;;;;0.76;82.96;97964.50;4955407;29;20059;-49
2022/01/07 17:42:26;;;;;;;20.00;9.25;;;;;;;0.85;83.07;97953.00;4949715;29;20032;-51
2022/01/07 17:44:52;;;;;;;19.20;9.32;;;;;;;0.79;83.57;97948.03;4934538;29;20138;-52
2022/01/07 17:47:17;;;;;;;19.85;9.05;;;;;;;0.74;83.59;97950.78;4949819;29;20031;-50
2022/01/07 17:49:43;;;;;;;22.38;11.13;;;;;;;0.66;83.66;97958.78;4941867;29;20031;-50
2022/01/07 17:52:08;;;;;;;20.48;10.10;;;;;;;0.73;83.05;97953.44;4946011;29;20051;-51
2022/01/07 17:54:34;;;;;;;20.17;9.13;;;;;;;0.85;83.08;97955.59;4936736;29;20024;-54
2022/01/07 17:56:59;;;;;;;24.20;10.38;;;;;;;0.73;83.10;97948.28;4954613;29;20023;-51